createdAt,value
2018-05-03T00:21:32.878Z,15.53
2018-05-03T00:24:01.767Z,18.20
2018-05-03T00:26:30.664Z,17.90
2018-05-03T00:28:59.587Z,17.60
2018-05-03T00:31:28.558Z,20.00
2018-05-03T00:33:57.545Z,21.17
2018-05-03T00:36:26.464Z,18.30
2018-05-03T00:38:55.366Z,17.53
2018-05-03T00:41:24.315Z,17.30
2018-05-03T00:43:53.425Z,16.50
2018-05-03T00:46:22.407Z,17.93
2018-05-03T00:48:51.387Z,17.60
2018-05-03T00:51:20.388Z,16.87
2018-05-03T00:53:49.312Z,16.67
2018-05-03T00:56:18.194Z,18.47
2018-05-03T00:58:47.152Z,15.63
2018-05-03T01:01:16.157Z,16.37
2018-05-03T01:03:45.045Z,19.20
2018-05-03T01:06:13.970Z,17.37
2018-05-03T01:08:42.928Z,16.47
2018-05-03T01:11:11.802Z,15.57
2018-05-03T01:13:40.799Z,17.17
2018-05-03T01:16:09.709Z,16.00
2018-05-03T01:18:38.571Z,17.00
2018-05-03T01:21:07.579Z,17.13
2018-05-03T01:23:36.486Z,14.90
2018-05-03T01:26:05.369Z,16.77
2018-05-03T01:28:34.310Z,18.07
2018-05-03T01:31:03.233Z,15.83
2018-05-03T01:33:32.104Z,17.33
2018-05-03T01:36:01.131Z,17.80
2018-05-03T01:38:30.043Z,18.70
2018-05-03T01:40:59.005Z,18.47
2018-05-03T01:43:27.917Z,18.07
2018-05-03T01:45:56.896Z,20.53
2018-05-03T01:48:25.815Z,17.67
2018-05-03T01:50:54.762Z,16.83
2018-05-03T01:53:23.646Z,19.07
2018-05-03T01:55:52.558Z,17.43
2018-05-03T01:58:21.538Z,19.77
2018-05-03T02:00:50.538Z,17.17
2018-05-03T02:03:19.417Z,17.77
2018-05-03T02:05:48.525Z,17.33
2018-05-03T02:08:17.529Z,17.53
2018-05-03T02:10:46.425Z,18.70
2018-05-03T02:13:15.390Z,17.40
2018-05-03T02:15:44.387Z,18.17
2018-05-03T02:18:13.409Z,19.60
2018-05-03T02:20:42.363Z,21.00
2018-05-03T02:23:11.238Z,20.37
2018-05-03T02:25:40.154Z,20.40
2018-05-03T02:28:09.149Z,19.13
2018-05-03T02:30:38.054Z,18.70
2018-05-03T02:33:06.937Z,22.20
2018-05-03T02:35:35.918Z,19.90
2018-05-03T02:38:04.905Z,19.60
2018-05-03T02:40:33.788Z,21.03
2018-05-03T02:43:02.697Z,20.07
2018-05-03T02:45:31.609Z,18.57
2018-05-03T02:48:00.505Z,18.90
2018-05-03T02:50:29.458Z,18.07
2018-05-03T02:52:58.345Z,18.33
2018-05-03T02:55:27.244Z,18.77
2018-05-03T02:57:56.238Z,19.60
2018-05-03T03:00:25.186Z,19.53
2018-05-03T03:02:54.118Z,17.27
2018-05-03T03:05:23.110Z,20.90
2018-05-03T03:07:52.015Z,18.87
2018-05-03T03:10:20.918Z,18.80
2018-05-03T03:12:49.865Z,18.67
2018-05-03T03:15:18.880Z,19.07
2018-05-03T03:17:47.757Z,19.43
2018-05-03T03:20:16.758Z,19.90
2018-05-03T03:22:45.669Z,19.93
2018-05-03T03:25:14.641Z,19.70
2018-05-03T03:27:43.834Z,19.13
2018-05-03T03:30:12.755Z,20.47
2018-05-03T03:32:41.727Z,21.83
2018-05-03T03:35:10.708Z,23.33
2018-05-03T03:37:39.701Z,21.77
2018-05-03T03:40:08.607Z,21.00
2018-05-03T03:42:37.545Z,21.67
2018-05-03T03:45:06.589Z,21.97
2018-05-03T03:47:35.571Z,21.33
2018-05-03T03:50:04.560Z,22.90
2018-05-03T03:52:33.456Z,21.07
2018-05-03T03:55:02.351Z,21.17
2018-05-03T03:57:31.337Z,20.23
2018-05-03T04:00:00.370Z,21.83
2018-05-03T04:02:29.330Z,19.97
2018-05-03T04:04:58.318Z,21.00
2018-05-03T04:07:27.317Z,22.00
2018-05-03T04:09:56.188Z,23.33
2018-05-03T04:12:25.159Z,21.80
2018-05-03T04:14:54.067Z,20.90
2018-05-03T04:17:22.919Z,20.53
2018-05-03T04:19:51.857Z,23.90
2018-05-03T04:22:20.843Z,22.33
2018-05-03T04:24:49.651Z,21.43
2018-05-03T04:27:18.636Z,27.33
2018-05-03T04:29:47.529Z,20.70
2018-05-03T04:32:16.454Z,20.93
2018-05-03T04:34:45.399Z,21.43
2018-05-03T04:37:14.286Z,20.63
2018-05-03T04:39:43.299Z,20.20
2018-05-03T04:42:12.223Z,20.50
2018-05-03T04:44:41.143Z,24.10
2018-05-03T04:47:10.048Z,25.17
2018-05-03T04:49:38.989Z,28.13
2018-05-03T04:52:07.878Z,35.43
2018-05-03T04:54:36.758Z,34.50
2018-05-03T04:57:05.782Z,33.10
2018-05-03T04:59:34.719Z,31.87
2018-05-03T05:02:03.607Z,25.23
2018-05-03T05:04:32.596Z,25.07
2018-05-03T05:07:01.528Z,24.10
2018-05-03T05:09:30.489Z,26.40
2018-05-03T05:11:59.471Z,20.03
2018-05-03T05:14:28.489Z,22.70
2018-05-03T05:16:57.409Z,25.77
2018-05-03T05:19:26.348Z,26.27
2018-05-03T05:21:55.346Z,27.10
2018-05-03T05:24:24.341Z,26.80
2018-05-03T05:26:53.256Z,23.80
2018-05-03T05:29:22.153Z,22.07
2018-05-03T05:31:51.106Z,21.50
2018-05-03T05:34:20.048Z,21.20
2018-05-03T05:36:48.979Z,27.23
2018-05-03T05:39:17.979Z,22.93
2018-05-03T05:41:46.969Z,23.23
2018-05-03T05:44:15.979Z,24.27
2018-05-03T05:46:44.866Z,20.50
2018-05-03T05:49:13.839Z,22.57
2018-05-03T05:51:42.833Z,23.07
2018-05-03T05:54:11.724Z,23.50
2018-05-03T05:56:40.684Z,25.50
2018-05-03T05:59:09.606Z,23.40
2018-05-03T06:01:38.502Z,24.13
2018-05-03T06:04:07.519Z,22.10
2018-05-03T06:06:36.365Z,24.27
2018-05-03T06:09:05.269Z,22.17
2018-05-03T06:11:34.205Z,22.63
2018-05-03T06:14:03.151Z,21.87
2018-05-03T06:16:32.167Z,21.03
2018-05-03T06:19:01.119Z,23.43
2018-05-03T06:21:30.092Z,21.93
2018-05-03T06:23:59.030Z,24.27
2018-05-03T06:26:28.039Z,20.73
2018-05-03T06:28:57.018Z,22.60
2018-05-03T06:31:25.938Z,20.57
2018-05-03T06:33:55.017Z,20.63
2018-05-03T06:36:23.997Z,21.70
2018-05-03T06:38:52.933Z,23.70
2018-05-03T06:41:21.874Z,22.20
2018-05-03T06:43:50.891Z,20.80
2018-05-03T06:46:19.867Z,21.23
2018-05-03T06:48:48.842Z,21.90
2018-05-03T06:51:17.756Z,21.73
2018-05-03T06:53:46.664Z,22.50
2018-05-03T06:56:15.616Z,20.80
2018-05-03T06:58:44.616Z,22.77
2018-05-03T07:01:13.623Z,22.67
2018-05-03T07:03:42.589Z,25.87
2018-05-03T07:06:11.500Z,23.00
2018-05-03T07:08:40.413Z,22.07
2018-05-03T07:11:09.368Z,23.90
2018-05-03T07:13:38.369Z,22.33
2018-05-03T07:16:07.373Z,21.00
2018-05-03T07:18:36.358Z,21.40
2018-05-03T07:21:05.349Z,22.20
2018-05-03T07:23:34.337Z,22.07
2018-05-03T07:26:03.374Z,21.93
2018-05-03T07:28:32.250Z,20.47
2018-05-03T07:31:01.200Z,20.87
2018-05-03T07:33:30.196Z,20.30
2018-05-03T07:35:59.208Z,20.33
2018-05-03T07:38:28.100Z,18.90
2018-05-03T07:40:57.125Z,19.83
2018-05-03T07:43:25.998Z,19.83
2018-05-03T07:45:54.874Z,20.10
2018-05-03T07:48:23.842Z,18.00
2018-05-03T07:50:52.732Z,18.43
2018-05-03T07:53:21.742Z,21.80
2018-05-03T07:55:50.714Z,18.43
2018-05-03T07:58:19.720Z,16.73
2018-05-03T08:00:48.628Z,20.17
2018-05-03T08:03:17.713Z,17.63
2018-05-03T08:05:46.666Z,19.50
2018-05-03T08:08:15.577Z,18.00
2018-05-03T08:10:44.682Z,17.53
2018-05-03T08:13:13.587Z,18.03
2018-05-03T08:15:42.572Z,21.53
2018-05-03T08:18:11.544Z,18.53
2018-05-03T08:20:40.556Z,18.70
2018-05-03T08:23:09.561Z,17.33
2018-05-03T08:25:38.652Z,20.17
2018-05-03T08:28:07.637Z,17.90
2018-05-03T08:30:36.636Z,19.83
2018-05-03T08:33:06.420Z,16.60
2018-05-03T08:35:35.348Z,19.73
2018-05-03T08:38:04.306Z,18.90
2018-05-03T08:40:33.300Z,18.17
2018-05-03T08:43:02.316Z,17.97
2018-05-03T08:45:31.237Z,18.93
2018-05-03T08:48:00.211Z,17.93
2018-05-03T08:50:29.189Z,17.40
2018-05-03T08:52:58.111Z,15.57
2018-05-03T08:55:27.119Z,18.17
2018-05-03T08:57:56.040Z,16.33
2018-05-03T09:00:25.056Z,16.70
2018-05-03T09:02:54.010Z,15.83
2018-05-03T09:05:23.029Z,17.30
2018-05-03T09:07:52.084Z,16.13
2018-05-03T09:10:21.006Z,15.53
2018-05-03T09:12:50.003Z,14.77
2018-05-03T09:15:19.003Z,15.30
2018-05-03T09:17:48.052Z,14.40
2018-05-03T09:20:16.990Z,15.90
2018-05-03T09:22:45.914Z,14.63
2018-05-03T09:25:14.854Z,15.83
2018-05-03T09:27:43.880Z,17.90
2018-05-03T09:30:12.787Z,15.67
2018-05-03T09:32:41.860Z,13.90
2018-05-03T09:35:10.826Z,13.90
2018-05-03T09:37:39.752Z,12.13
2018-05-03T09:40:08.965Z,12.00
2018-05-03T09:42:38.025Z,14.80
2018-05-03T09:45:06.951Z,11.43
2018-05-03T09:47:35.911Z,13.37
2018-05-03T09:50:04.881Z,13.03
2018-05-03T09:52:33.853Z,10.47
2018-05-03T09:55:02.874Z,12.93
2018-05-03T09:57:31.884Z,11.53
2018-05-03T10:00:00.824Z,12.50
2018-05-03T10:02:29.863Z,13.60
2018-05-03T10:04:58.795Z,9.83
2018-05-03T10:07:27.728Z,11.37
2018-05-03T10:09:56.682Z,12.03
2018-05-03T10:12:25.589Z,11.33
2018-05-03T10:14:54.511Z,9.20
2018-05-03T10:17:23.602Z,10.43
2018-05-03T10:19:52.519Z,13.87
2018-05-03T10:22:21.515Z,12.07
2018-05-03T10:24:50.609Z,8.70
2018-05-03T10:27:19.546Z,10.00
2018-05-03T10:29:48.450Z,13.73
2018-05-03T10:32:17.419Z,12.53
2018-05-03T10:34:46.335Z,8.07
2018-05-03T10:37:15.211Z,7.77
2018-05-03T10:39:44.249Z,12.63
2018-05-03T10:42:13.204Z,10.30
2018-05-03T10:44:42.097Z,10.77
2018-05-03T10:47:11.122Z,10.27
2018-05-03T10:49:40.059Z,11.67
2018-05-03T10:52:08.978Z,9.53
2018-05-03T10:54:37.930Z,10.13
2018-05-03T10:57:06.861Z,16.43
2018-05-03T10:59:35.748Z,14.57
2018-05-03T11:02:04.871Z,12.93
2018-05-03T11:04:33.802Z,15.43
2018-05-03T11:07:02.724Z,15.77
2018-05-03T11:09:31.677Z,13.07
2018-05-03T11:12:00.612Z,14.57
2018-05-03T11:14:29.610Z,14.10
2018-05-03T11:16:58.572Z,14.57
2018-05-03T11:19:27.610Z,14.20
2018-05-03T11:21:56.610Z,15.40
2018-05-03T11:24:25.620Z,13.30
2018-05-03T11:26:54.584Z,13.67
2018-05-03T11:29:23.499Z,14.43
2018-05-03T11:31:52.547Z,13.87
2018-05-03T11:34:21.483Z,14.20
2018-05-03T11:36:50.553Z,13.70
2018-05-03T11:39:19.540Z,22.73
2018-05-03T11:41:48.538Z,13.07
2018-05-03T11:44:17.473Z,15.53
2018-05-03T11:46:46.424Z,14.20
2018-05-03T11:49:15.408Z,19.97
2018-05-03T11:51:44.310Z,13.97
2018-05-03T11:54:13.283Z,16.37
2018-05-03T11:56:42.289Z,16.00
2018-05-03T11:59:11.317Z,13.83
2018-05-03T12:01:40.253Z,12.33
2018-05-03T12:04:09.255Z,11.43
2018-05-03T12:06:38.254Z,11.70
2018-05-03T12:09:07.230Z,10.93
2018-05-03T12:11:36.168Z,12.10
2018-05-03T12:14:05.150Z,12.47
2018-05-03T12:16:34.218Z,19.00
2018-05-03T12:19:03.144Z,9.57
2018-05-03T12:21:32.089Z,9.60
2018-05-03T12:24:01.083Z,9.77
2018-05-03T12:26:30.090Z,10.83
2018-05-03T12:28:59.080Z,10.37
2018-05-03T12:31:28.063Z,9.90
2018-05-03T12:33:57.024Z,12.20
2018-05-03T12:36:25.942Z,10.97
2018-05-03T12:38:54.934Z,10.07
2018-05-03T12:41:23.845Z,11.77
2018-05-03T12:43:52.801Z,10.17
2018-05-03T12:46:22.131Z,9.53
2018-05-03T12:48:51.136Z,10.07
2018-05-03T12:51:20.044Z,13.33
2018-05-03T12:53:49.001Z,9.43
2018-05-03T12:56:17.886Z,11.87
2018-05-03T12:58:46.882Z,10.47
2018-05-03T13:01:15.887Z,7.93
2018-05-03T13:03:44.788Z,9.37
2018-05-03T13:06:13.777Z,10.27
2018-05-03T13:08:42.742Z,10.83
2018-05-03T13:11:11.759Z,10.77
2018-05-03T13:13:40.749Z,10.27
2018-05-03T13:16:09.720Z,9.40
2018-05-03T13:18:38.625Z,7.97
2018-05-03T13:21:07.551Z,8.37
2018-05-03T13:23:36.621Z,13.90
2018-05-03T13:26:05.718Z,12.23
2018-05-03T13:28:34.684Z,10.53
2018-05-03T13:31:03.647Z,9.13
2018-05-03T13:33:32.564Z,11.47
2018-05-03T13:36:01.571Z,9.73
2018-05-03T13:38:30.568Z,9.57
2018-05-03T13:40:59.514Z,10.60
2018-05-03T13:43:28.436Z,8.63
2018-05-03T13:45:58.488Z,10.13
2018-05-03T13:48:27.446Z,8.30
2018-05-03T13:50:56.357Z,10.20
2018-05-03T13:53:25.403Z,8.30
2018-05-03T13:55:54.339Z,11.07
2018-05-03T13:58:23.340Z,9.63
2018-05-03T14:00:52.337Z,9.10
2018-05-03T14:03:21.301Z,11.13
2018-05-03T14:05:50.314Z,22.53
2018-05-03T14:08:19.277Z,9.07
2018-05-03T14:10:48.289Z,11.60
2018-05-03T14:13:17.223Z,7.97
2018-05-03T14:15:46.207Z,16.53
2018-05-03T14:18:15.143Z,10.73
2018-05-03T14:20:44.050Z,10.77
2018-05-03T14:23:13.156Z,11.73
2018-05-03T14:25:42.129Z,9.13
2018-05-03T14:28:11.116Z,13.83
2018-05-03T14:30:40.092Z,9.60
2018-05-03T14:33:09.001Z,11.90
2018-05-03T14:35:38.012Z,14.97
2018-05-03T14:38:07.211Z,9.53
2018-05-03T14:40:36.187Z,21.47
2018-05-03T14:43:05.121Z,11.43
2018-05-03T14:45:34.188Z,14.67
2018-05-03T14:48:03.145Z,12.13
2018-05-03T14:50:32.179Z,14.17
2018-05-03T14:53:01.248Z,12.70
2018-05-03T14:55:30.243Z,10.57
2018-05-03T14:57:59.248Z,10.17
2018-05-03T15:00:28.345Z,9.77
2018-05-03T15:02:57.318Z,15.77
2018-05-03T15:05:26.223Z,12.67
2018-05-03T15:07:55.322Z,11.20
2018-05-03T15:10:24.312Z,13.63
2018-05-03T15:12:53.312Z,14.07
2018-05-03T15:15:22.233Z,19.33
2018-05-03T15:17:51.168Z,16.83
2018-05-03T15:20:20.181Z,13.47
2018-05-03T15:22:49.156Z,15.50
2018-05-03T15:25:18.155Z,15.50
2018-05-03T15:27:47.145Z,14.87
2018-05-03T15:30:16.115Z,15.17
2018-05-03T15:32:44.999Z,14.97
2018-05-03T15:35:14.029Z,14.77
2018-05-03T15:37:42.958Z,15.27
2018-05-03T15:40:11.892Z,17.00
2018-05-03T15:42:40.813Z,14.83
2018-05-03T15:45:09.897Z,15.33
2018-05-03T15:47:38.891Z,15.43
2018-05-03T15:50:07.795Z,13.70
2018-05-03T15:52:37.019Z,14.93
2018-05-03T15:55:06.064Z,12.70
2018-05-03T15:57:35.067Z,12.60
2018-05-03T16:00:04.015Z,15.07
2018-05-03T16:02:32.931Z,11.43
2018-05-03T16:05:01.952Z,12.03
2018-05-03T16:07:31.046Z,12.47
2018-05-03T16:09:59.998Z,10.40
2018-05-03T16:12:28.937Z,14.17
2018-05-03T16:14:57.876Z,12.10
2018-05-03T16:17:26.909Z,13.13
2018-05-03T16:19:55.825Z,10.97
2018-05-03T16:22:24.786Z,11.03
2018-05-03T16:24:53.699Z,11.47
2018-05-03T16:27:22.626Z,11.90
2018-05-03T16:29:51.617Z,10.73
2018-05-03T16:32:25.348Z,11.40
2018-05-03T16:34:54.324Z,10.73
2018-05-03T16:37:23.228Z,10.37
2018-05-03T16:39:52.131Z,10.00
2018-05-03T16:42:21.061Z,9.60
2018-05-03T16:44:49.980Z,9.67
2018-05-03T16:47:18.870Z,10.97
2018-05-03T16:49:47.886Z,8.20
2018-05-03T16:52:16.941Z,7.10
2018-05-03T16:54:45.995Z,7.87
2018-05-03T16:57:15.086Z,8.80
2018-05-03T16:59:44.090Z,8.20
2018-05-03T17:02:13.077Z,8.10
2018-05-03T17:04:42.070Z,9.20
2018-05-03T17:07:11.058Z,8.70
2018-05-03T17:09:39.947Z,8.10
2018-05-03T17:12:08.931Z,8.87
2018-05-03T17:14:37.853Z,10.40
2018-05-03T17:17:06.802Z,10.80
2018-05-03T17:19:35.780Z,10.43
2018-05-03T17:22:04.667Z,11.73
2018-05-03T17:24:33.597Z,12.20
2018-05-03T17:27:02.571Z,11.27
2018-05-03T17:29:31.560Z,12.50
2018-05-03T17:32:00.499Z,14.23
2018-05-03T17:34:29.462Z,13.73
2018-05-03T17:36:58.370Z,12.70
2018-05-03T17:39:27.321Z,11.50
2018-05-03T17:41:56.318Z,12.23
2018-05-03T17:44:25.326Z,13.43
2018-05-03T17:46:54.260Z,13.80
2018-05-03T17:49:23.312Z,12.73
2018-05-03T17:51:52.209Z,14.00
2018-05-03T17:54:21.178Z,15.20
2018-05-03T17:56:50.183Z,14.27
2018-05-03T17:59:19.063Z,14.63
2018-05-03T18:01:48.059Z,15.37
2018-05-03T18:04:17.042Z,15.20
2018-05-03T18:06:45.973Z,14.33
2018-05-03T18:09:14.887Z,15.30
2018-05-03T18:11:43.852Z,15.70
2018-05-03T18:14:12.937Z,16.13
2018-05-03T18:16:41.891Z,15.60
2018-05-03T18:19:10.893Z,18.63
2018-05-03T18:21:39.821Z,17.77
2018-05-03T18:24:08.759Z,17.97
2018-05-03T18:26:37.773Z,18.73
2018-05-03T18:29:06.781Z,18.43
2018-05-03T18:31:35.759Z,19.53
2018-05-03T18:34:04.757Z,18.90
2018-05-03T18:36:33.708Z,20.87
2018-05-03T18:39:02.746Z,19.57
2018-05-03T18:41:31.695Z,20.97
2018-05-03T18:44:00.667Z,22.87
2018-05-03T18:46:29.634Z,21.47
2018-05-03T18:48:58.733Z,20.73
2018-05-03T18:51:27.695Z,21.47
2018-05-03T18:53:56.608Z,21.87
2018-05-03T18:56:25.965Z,23.33
2018-05-03T18:58:54.855Z,21.27
2018-05-03T19:01:23.788Z,20.27
2018-05-03T19:03:52.807Z,22.33
2018-05-03T19:06:21.712Z,23.43
2018-05-03T19:08:50.776Z,21.30
2018-05-03T19:11:19.769Z,21.33
2018-05-03T19:13:48.735Z,22.17
2018-05-03T19:16:17.732Z,22.00
2018-05-03T19:18:46.834Z,21.50
2018-05-03T19:21:15.813Z,21.93
2018-05-03T19:23:44.788Z,21.17
2018-05-03T19:26:14.620Z,22.03
2018-05-03T19:28:43.631Z,20.00
2018-05-03T19:31:12.576Z,21.80
2018-05-03T19:33:41.539Z,21.37
2018-05-03T19:36:10.483Z,20.17
2018-05-03T19:38:39.395Z,20.30
2018-05-03T19:41:08.482Z,20.10
2018-05-03T19:43:37.443Z,19.40
2018-05-03T19:46:06.384Z,19.67
2018-05-03T19:48:36.491Z,20.53
2018-05-03T19:51:05.473Z,20.73
2018-05-03T19:53:34.455Z,20.60
2018-05-03T19:56:03.563Z,19.40
2018-05-03T19:58:32.568Z,21.07
2018-05-03T20:01:01.537Z,20.50
2018-05-03T20:03:30.493Z,22.90
2018-05-03T20:05:59.396Z,19.33
2018-05-03T20:08:28.299Z,20.73
2018-05-03T20:10:58.219Z,21.03
2018-05-03T20:13:27.148Z,21.70
2018-05-03T20:15:56.107Z,19.30
2018-05-03T20:18:25.075Z,21.30
2018-05-03T20:20:53.989Z,19.90
2018-05-03T20:23:22.899Z,22.50
2018-05-03T20:25:51.865Z,20.80
2018-05-03T20:28:20.872Z,21.60
2018-05-03T20:30:49.871Z,20.93
2018-05-03T20:33:18.843Z,21.23
2018-05-03T20:35:47.860Z,21.93
2018-05-03T20:38:16.840Z,23.30
2018-05-03T20:40:45.831Z,20.33
2018-05-03T20:43:14.849Z,21.40
2018-05-03T20:45:43.738Z,20.30
2018-05-03T20:48:12.709Z,20.73
2018-05-03T20:50:41.625Z,19.57
2018-05-03T20:53:10.588Z,23.30
2018-05-03T20:55:39.538Z,20.40
2018-05-03T20:58:08.578Z,21.30
2018-05-03T21:00:37.680Z,21.50
2018-05-03T21:03:06.648Z,24.10
2018-05-03T21:05:35.573Z,22.37
2018-05-03T21:08:04.534Z,23.20
2018-05-03T21:10:33.478Z,21.73
2018-05-03T21:13:02.420Z,22.40
2018-05-03T21:15:31.437Z,20.30
2018-05-03T21:18:00.404Z,22.57
2018-05-03T21:20:29.427Z,22.33
2018-05-03T21:22:58.340Z,21.13
2018-05-03T21:25:27.316Z,22.37
2018-05-03T21:27:56.265Z,20.90
2018-05-03T21:30:25.596Z,21.23
2018-05-03T21:32:54.559Z,22.33
2018-05-03T21:35:23.549Z,23.27
2018-05-03T21:37:52.488Z,20.73
2018-05-03T21:40:21.556Z,20.83
2018-05-03T21:42:50.481Z,21.43
2018-05-03T21:45:19.379Z,22.97
2018-05-03T21:47:48.424Z,20.70
2018-05-03T21:50:17.342Z,21.00
2018-05-03T21:52:46.295Z,22.47
2018-05-03T21:55:15.299Z,20.13
2018-05-03T21:57:44.285Z,20.00
2018-05-03T22:00:13.297Z,18.33
2018-05-03T22:02:42.586Z,17.93
2018-05-03T22:05:11.582Z,17.70
2018-05-03T22:07:40.572Z,16.03
2018-05-03T22:10:09.516Z,16.23
2018-05-03T22:12:38.553Z,16.23
2018-05-03T22:15:10.629Z,14.53
2018-05-03T22:17:39.610Z,12.00
2018-05-03T22:20:08.599Z,11.23
2018-05-03T22:22:37.536Z,10.30
2018-05-03T22:25:06.493Z,9.43
2018-05-03T22:27:35.383Z,9.80
2018-05-03T22:30:04.340Z,8.03
2018-05-03T22:32:33.245Z,8.90
2018-05-03T22:35:02.125Z,9.20
2018-05-03T22:37:31.133Z,10.90
2018-05-03T22:40:00.034Z,9.10
2018-05-03T22:42:28.921Z,9.03
2018-05-03T22:44:57.877Z,8.13
2018-05-03T22:47:26.811Z,8.43
2018-05-03T22:49:55.738Z,8.07
2018-05-03T22:52:24.678Z,8.10
2018-05-03T22:54:53.755Z,8.33
2018-05-03T22:57:22.603Z,8.07
2018-05-03T22:59:51.544Z,7.03
2018-05-03T23:02:20.442Z,8.90
2018-05-03T23:04:49.324Z,8.80
2018-05-03T23:07:18.284Z,9.00
2018-05-03T23:09:47.190Z,7.80
2018-05-03T23:12:16.061Z,8.13
2018-05-03T23:14:45.043Z,8.37
2018-05-03T23:17:13.984Z,8.63
2018-05-03T23:19:42.895Z,11.37
2018-05-03T23:22:11.803Z,8.37
2018-05-03T23:24:40.756Z,6.90
2018-05-03T23:27:09.624Z,8.97
2018-05-03T23:29:38.550Z,10.37
2018-05-03T23:32:07.465Z,10.97
2018-05-03T23:34:36.428Z,8.67
2018-05-03T23:37:05.421Z,8.57
2018-05-03T23:39:34.300Z,8.77
2018-05-03T23:42:03.322Z,12.03
2018-05-03T23:44:32.285Z,9.97
2018-05-03T23:47:01.186Z,11.43
2018-05-03T23:49:30.099Z,12.90
2018-05-03T23:51:59.031Z,12.90
2018-05-03T23:54:27.945Z,10.80
2018-05-03T23:56:56.956Z,10.07
2018-05-03T23:59:25.952Z,9.77
